Cookstown, New Jersey
Current Conditions -  °F | °C
As of 8:58 AM on Friday 19 Dec 2014 (Local Time) from KWRI Reporting Station
Overcast Overcast  
Wind Chill: 29°   Ceiling: 3600
Heat Index: 37°   Visibility: 10mi
Dew Point: 26°   Wind: 10mph
Humidity: 66%   Direction: 310°NW
Pressure: 30.04"   Gusts: NA
Location:  40.05°N, 74.56°W
Report Text: KWRI 191358Z AUTO 31009KT 10SM OVC036 03/M03 A3004 RMK AO2 SLP177 T00261031
Loading
Personal Weather Stations






























Interactive Weather Map New forecast layout! Learn more

10-Day Weather Forecast

Advertisements
Track Severe Weather on mobile